sensor_id;sensor_type;location;lat;lon;timestamp;pressure;altitude;pressure_sealevel;temperature;humidity
36932;BME280;22847;42.654;23.370;2023-01-31T00:01:13;94225.78;;;2.82;59.21
36932;BME280;22847;42.654;23.370;2023-01-31T00:03:39;94252.97;;;2.97;59.41
36932;BME280;22847;42.654;23.370;2023-01-31T00:06:16;94166.00;;;2.90;59.96
36932;BME280;22847;42.654;23.370;2023-01-31T00:08:42;94196.97;;;2.77;60.94
36932;BME280;22847;42.654;23.370;2023-01-31T00:11:09;94167.09;;;2.27;60.17
36932;BME280;22847;42.654;23.370;2023-01-31T00:13:35;94230.72;;;2.49;60.34
36932;BME280;22847;42.654;23.370;2023-01-31T00:16:00;94108.84;;;2.02;59.94
36932;BME280;22847;42.654;23.370;2023-01-31T00:18:26;94206.97;;;2.93;59.83
36932;BME280;22847;42.654;23.370;2023-01-31T00:20:51;94219.13;;;3.14;59.18
36932;BME280;22847;42.654;23.370;2023-01-31T00:23:16;94251.00;;;3.25;59.04
36932;BME280;22847;42.654;23.370;2023-01-31T00:25:42;94201.44;;;3.10;59.18
36932;BME280;22847;42.654;23.370;2023-01-31T00:28:07;94133.53;;;2.76;61.18
36932;BME280;22847;42.654;23.370;2023-01-31T00:30:33;94106.59;;;2.69;61.12
36932;BME280;22847;42.654;23.370;2023-01-31T00:32:59;94185.81;;;3.24;61.38
36932;BME280;22847;42.654;23.370;2023-01-31T00:35:24;94212.50;;;3.23;62.08
36932;BME280;22847;42.654;23.370;2023-01-31T00:37:50;94200.94;;;3.40;59.44
36932;BME280;22847;42.654;23.370;2023-01-31T00:40:15;94045.66;;;1.87;61.33
36932;BME280;22847;42.654;23.370;2023-01-31T00:42:41;94207.34;;;2.76;59.18
36932;BME280;22847;42.654;23.370;2023-01-31T00:45:08;94229.50;;;3.37;58.58
36932;BME280;22847;42.654;23.370;2023-01-31T00:47:33;94275.09;;;3.47;57.89
36932;BME280;22847;42.654;23.370;2023-01-31T00:49:59;94216.69;;;3.59;58.01
36932;BME280;22847;42.654;23.370;2023-01-31T00:52:24;94215.13;;;3.56;57.82
36932;BME280;22847;42.654;23.370;2023-01-31T00:54:50;94252.28;;;3.54;57.12
36932;BME280;22847;42.654;23.370;2023-01-31T00:57:15;94210.25;;;3.65;56.86
36932;BME280;22847;42.654;23.370;2023-01-31T00:59:41;94054.22;;;2.70;56.64
36932;BME280;22847;42.654;23.370;2023-01-31T01:02:06;93951.25;;;1.89;56.20
36932;BME280;22847;42.654;23.370;2023-01-31T01:04:32;94176.59;;;3.44;56.34
36932;BME280;22847;42.654;23.370;2023-01-31T01:06:57;94200.28;;;3.71;56.34
36932;BME280;22847;42.654;23.370;2023-01-31T01:09:22;93923.72;;;1.91;56.67
36932;BME280;22847;42.654;23.370;2023-01-31T01:11:48;93944.84;;;1.95;58.13
36932;BME280;22847;42.654;23.370;2023-01-31T01:14:14;94198.34;;;3.40;57.85
36932;BME280;22847;42.654;23.370;2023-01-31T01:16:40;94218.56;;;3.68;58.40
36932;BME280;22847;42.654;23.370;2023-01-31T01:19:10;94034.75;;;2.66;59.10
36932;BME280;22847;42.654;23.370;2023-01-31T01:21:36;94243.09;;;3.85;58.71
36932;BME280;22847;42.654;23.370;2023-01-31T01:24:07;94015.09;;;2.54;58.17
36932;BME280;22847;42.654;23.370;2023-01-31T01:26:36;94204.59;;;3.48;57.98
36932;BME280;22847;42.654;23.370;2023-01-31T01:29:02;94197.72;;;3.60;57.80
36932;BME280;22847;42.654;23.370;2023-01-31T01:31:28;94209.94;;;3.34;58.10
36932;BME280;22847;42.654;23.370;2023-01-31T01:34:02;94058.97;;;2.63;57.05
36932;BME280;22847;42.654;23.370;2023-01-31T01:36:28;94179.09;;;3.22;55.86
36932;BME280;22847;42.654;23.370;2023-01-31T01:38:54;94193.09;;;3.41;54.92
36932;BME280;22847;42.654;23.370;2023-01-31T01:41:20;94233.13;;;3.69;54.56
36932;BME280;22847;42.654;23.370;2023-01-31T01:43:51;94152.97;;;3.72;55.33
36932;BME280;22847;42.654;23.370;2023-01-31T01:46:29;94181.28;;;3.61;53.38
36932;BME280;22847;42.654;23.370;2023-01-31T01:49:11;94176.50;;;3.79;56.19
36932;BME280;22847;42.654;23.370;2023-01-31T01:51:41;94177.81;;;3.73;53.60
36932;BME280;22847;42.654;23.370;2023-01-31T01:54:12;94099.66;;;3.73;52.64
36932;BME280;22847;42.654;23.370;2023-01-31T01:56:41;94148.16;;;3.90;51.52
36932;BME280;22847;42.654;23.370;2023-01-31T01:59:20;93988.25;;;2.91;50.11
36932;BME280;22847;42.654;23.370;2023-01-31T02:01:49;94177.09;;;4.27;49.27
36932;BME280;22847;42.654;23.370;2023-01-31T02:04:22;94126.25;;;3.95;52.37
36932;BME280;22847;42.654;23.370;2023-01-31T02:06:48;94142.63;;;4.17;49.50
36932;BME280;22847;42.654;23.370;2023-01-31T02:12:06;94169.56;;;4.24;51.02
36932;BME280;22847;42.654;23.370;2023-01-31T02:14:32;94227.53;;;4.20;55.24
36932;BME280;22847;42.654;23.370;2023-01-31T02:16:58;94215.59;;;4.19;49.23
36932;BME280;22847;42.654;23.370;2023-01-31T02:19:40;94156.81;;;4.11;52.78
36932;BME280;22847;42.654;23.370;2023-01-31T02:22:16;94182.84;;;4.19;49.33
36932;BME280;22847;42.654;23.370;2023-01-31T02:38:43;94138.19;;;3.74;47.00
36932;BME280;22847;42.654;23.370;2023-01-31T02:43:56;93902.19;;;2.16;48.59
36932;BME280;22847;42.654;23.370;2023-01-31T02:49:26;94183.69;;;3.86;50.33
36932;BME280;22847;42.654;23.370;2023-01-31T02:52:05;94186.25;;;3.97;48.80
36932;BME280;22847;42.654;23.370;2023-01-31T02:54:50;94204.28;;;3.75;49.92
36932;BME280;22847;42.654;23.370;2023-01-31T02:57:35;94189.53;;;3.99;52.97
36932;BME280;22847;42.654;23.370;2023-01-31T03:00:04;94205.25;;;4.19;49.68
36932;BME280;22847;42.654;23.370;2023-01-31T03:02:31;94120.97;;;3.64;51.23
36932;BME280;22847;42.654;23.370;2023-01-31T03:04:56;93949.03;;;2.65;52.10
36932;BME280;22847;42.654;23.370;2023-01-31T03:07:23;94207.84;;;4.19;50.78
36932;BME280;22847;42.654;23.370;2023-01-31T03:10:02;94269.28;;;4.25;49.93
36932;BME280;22847;42.654;23.370;2023-01-31T03:17:55;94243.34;;;4.15;54.32
36932;BME280;22847;42.654;23.370;2023-01-31T03:23:01;94197.59;;;3.73;54.27
36932;BME280;22847;42.654;23.370;2023-01-31T03:25:31;94255.44;;;4.03;53.30
36932;BME280;22847;42.654;23.370;2023-01-31T03:28:02;94232.69;;;4.09;54.03
36932;BME280;22847;42.654;23.370;2023-01-31T03:30:39;94171.47;;;3.55;54.01
36932;BME280;22847;42.654;23.370;2023-01-31T03:33:36;94250.41;;;4.13;53.73
36932;BME280;22847;42.654;23.370;2023-01-31T03:39:09;94265.16;;;4.33;56.79
36932;BME280;22847;42.654;23.370;2023-01-31T03:44:25;94283.97;;;4.35;55.21
36932;BME280;22847;42.654;23.370;2023-01-31T03:47:00;94251.78;;;4.06;56.18
36932;BME280;22847;42.654;23.370;2023-01-31T03:49:28;94286.66;;;4.23;56.89
36932;BME280;22847;42.654;23.370;2023-01-31T03:52:05;94273.97;;;4.20;58.88
36932;BME280;22847;42.654;23.370;2023-01-31T03:54:46;94277.09;;;3.90;55.48
36932;BME280;22847;42.654;23.370;2023-01-31T03:57:34;94299.41;;;4.13;57.10
36932;BME280;22847;42.654;23.370;2023-01-31T04:00:04;93858.78;;;1.30;55.29
36932;BME280;22847;42.654;23.370;2023-01-31T04:02:34;94336.06;;;3.94;55.50
36932;BME280;22847;42.654;23.370;2023-01-31T04:05:12;94298.44;;;3.57;55.96
36932;BME280;22847;42.654;23.370;2023-01-31T04:07:40;94293.28;;;3.57;56.15
36932;BME280;22847;42.654;23.370;2023-01-31T04:10:11;94287.38;;;3.44;57.71
36932;BME280;22847;42.654;23.370;2023-01-31T04:12:38;94292.53;;;3.20;58.67
36932;BME280;22847;42.654;23.370;2023-01-31T04:15:05;94265.81;;;3.10;59.09
36932;BME280;22847;42.654;23.370;2023-01-31T04:17:31;94084.03;;;2.14;58.97
36932;BME280;22847;42.654;23.370;2023-01-31T04:19:57;94294.13;;;3.34;59.45
36932;BME280;22847;42.654;23.370;2023-01-31T04:22:23;94074.22;;;1.95;60.37
36932;BME280;22847;42.654;23.370;2023-01-31T04:24:48;94311.34;;;3.09;60.75
36932;BME280;22847;42.654;23.370;2023-01-31T04:27:14;94274.34;;;2.87;60.68
36932;BME280;22847;42.654;23.370;2023-01-31T04:29:39;94050.16;;;1.60;60.87
36932;BME280;22847;42.654;23.370;2023-01-31T04:32:05;94329.16;;;3.12;61.15
36932;BME280;22847;42.654;23.370;2023-01-31T04:34:30;94308.56;;;2.76;62.16
36932;BME280;22847;42.654;23.370;2023-01-31T04:36:56;94319.78;;;2.75;62.80
36932;BME280;22847;42.654;23.370;2023-01-31T04:39:21;94318.38;;;2.58;63.50
36932;BME280;22847;42.654;23.370;2023-01-31T04:41:47;94308.22;;;2.44;64.09
36932;BME280;22847;42.654;23.370;2023-01-31T04:44:12;94335.88;;;2.53;64.15
36932;BME280;22847;42.654;23.370;2023-01-31T04:46:38;94273.25;;;2.16;64.48
36932;BME280;22847;42.654;23.370;2023-01-31T04:49:03;94151.38;;;1.45;64.47
36932;BME280;22847;42.654;23.370;2023-01-31T04:51:29;94338.91;;;2.47;64.51
36932;BME280;22847;42.654;23.370;2023-01-31T04:53:54;94343.50;;;2.55;64.69
36932;BME280;22847;42.654;23.370;2023-01-31T04:56:20;94376.88;;;2.56;64.56
36932;BME280;22847;42.654;23.370;2023-01-31T04:58:46;94250.03;;;2.05;64.48
36932;BME280;22847;42.654;23.370;2023-01-31T05:01:12;94341.97;;;2.65;64.61
36932;BME280;22847;42.654;23.370;2023-01-31T05:03:38;94355.72;;;2.77;65.06
36932;BME280;22847;42.654;23.370;2023-01-31T05:06:04;94351.31;;;2.79;64.60
36932;BME280;22847;42.654;23.370;2023-01-31T05:08:29;94285.97;;;2.43;64.48
36932;BME280;22847;42.654;23.370;2023-01-31T05:10:59;94390.22;;;2.61;64.89
36932;BME280;22847;42.654;23.370;2023-01-31T05:13:25;94302.69;;;2.38;65.04
36932;BME280;22847;42.654;23.370;2023-01-31T05:15:51;94123.31;;;0.91;65.62
36932;BME280;22847;42.654;23.370;2023-01-31T05:18:17;94370.56;;;2.48;65.01
36932;BME280;22847;42.654;23.370;2023-01-31T05:20:42;94340.59;;;2.72;64.54
36932;BME280;22847;42.654;23.370;2023-01-31T05:23:08;94345.84;;;2.70;64.48
36932;BME280;22847;42.654;23.370;2023-01-31T05:25:35;94126.53;;;1.32;64.71
36932;BME280;22847;42.654;23.370;2023-01-31T05:28:02;94364.78;;;2.82;64.44
36932;BME280;22847;42.654;23.370;2023-01-31T05:30:28;94346.75;;;2.82;64.19
36932;BME280;22847;42.654;23.370;2023-01-31T05:32:53;94318.31;;;2.47;64.37
36932;BME280;22847;42.654;23.370;2023-01-31T05:35:19;94349.78;;;2.51;64.41
36932;BME280;22847;42.654;23.370;2023-01-31T05:37:44;94436.97;;;2.81;63.92
36932;BME280;22847;42.654;23.370;2023-01-31T05:40:15;94360.47;;;2.83;64.03
36932;BME280;22847;42.654;23.370;2023-01-31T05:42:41;94363.41;;;2.89;63.93
36932;BME280;22847;42.654;23.370;2023-01-31T05:45:08;94327.97;;;2.44;64.12
36932;BME280;22847;42.654;23.370;2023-01-31T05:47:34;94308.41;;;2.54;64.14
36932;BME280;22847;42.654;23.370;2023-01-31T05:50:00;94108.78;;;1.17;65.16
36932;BME280;22847;42.654;23.370;2023-01-31T05:52:26;94107.63;;;1.33;64.00
36932;BME280;22847;42.654;23.370;2023-01-31T05:54:51;94368.25;;;2.94;63.76
36932;BME280;22847;42.654;23.370;2023-01-31T05:57:17;94332.16;;;2.83;63.80
36932;BME280;22847;42.654;23.370;2023-01-31T05:59:42;94360.38;;;3.08;63.30
36932;BME280;22847;42.654;23.370;2023-01-31T06:02:08;94360.28;;;3.09;63.12
36932;BME280;22847;42.654;23.370;2023-01-31T06:04:36;94147.25;;;1.55;63.74
36932;BME280;22847;42.654;23.370;2023-01-31T06:07:01;94358.03;;;3.05;63.76
36932;BME280;22847;42.654;23.370;2023-01-31T06:09:26;94363.31;;;2.91;64.02
36932;BME280;22847;42.654;23.370;2023-01-31T06:11:52;94168.63;;;1.68;64.14
36932;BME280;22847;42.654;23.370;2023-01-31T06:14:17;94371.56;;;2.96;64.01
36932;BME280;22847;42.654;23.370;2023-01-31T06:16:43;94312.31;;;2.59;64.62
36932;BME280;22847;42.654;23.370;2023-01-31T06:19:08;94380.94;;;2.97;64.18
36932;BME280;22847;42.654;23.370;2023-01-31T06:21:34;94389.78;;;2.93;64.55
36932;BME280;22847;42.654;23.370;2023-01-31T06:24:00;94431.47;;;2.98;64.59
36932;BME280;22847;42.654;23.370;2023-01-31T06:26:25;94152.19;;;1.32;64.70
36932;BME280;22847;42.654;23.370;2023-01-31T06:28:51;94401.53;;;2.97;64.42
36932;BME280;22847;42.654;23.370;2023-01-31T06:31:17;94425.09;;;3.03;64.43
36932;BME280;22847;42.654;23.370;2023-01-31T06:33:42;94329.00;;;2.54;64.07
36932;BME280;22847;42.654;23.370;2023-01-31T06:36:08;94353.75;;;2.80;64.42
36932;BME280;22847;42.654;23.370;2023-01-31T06:38:33;94398.19;;;3.07;64.56
36932;BME280;22847;42.654;23.370;2023-01-31T06:40:59;94350.19;;;2.57;65.18
36932;BME280;22847;42.654;23.370;2023-01-31T06:43:24;94294.44;;;2.07;64.93
36932;BME280;22847;42.654;23.370;2023-01-31T06:45:50;94416.53;;;3.03;65.21
36932;BME280;22847;42.654;23.370;2023-01-31T06:48:15;94200.28;;;1.81;64.79
36932;BME280;22847;42.654;23.370;2023-01-31T06:50:41;94348.72;;;2.79;64.69
36932;BME280;22847;42.654;23.370;2023-01-31T06:53:08;94459.97;;;3.20;64.22
36932;BME280;22847;42.654;23.370;2023-01-31T06:55:33;94216.19;;;1.99;64.11
36932;BME280;22847;42.654;23.370;2023-01-31T06:57:58;94161.94;;;1.78;63.38
36932;BME280;22847;42.654;23.370;2023-01-31T07:00:24;94381.44;;;2.89;64.58
36932;BME280;22847;42.654;23.370;2023-01-31T07:02:50;94428.63;;;2.90;65.39
36932;BME280;22847;42.654;23.370;2023-01-31T07:05:16;94360.47;;;2.83;64.72
36932;BME280;22847;42.654;23.370;2023-01-31T07:07:42;94211.91;;;1.87;64.65
36932;BME280;22847;42.654;23.370;2023-01-31T07:10:08;94355.97;;;2.61;65.32
36932;BME280;22847;42.654;23.370;2023-01-31T07:12:34;94389.09;;;2.78;65.23
36932;BME280;22847;42.654;23.370;2023-01-31T07:15:00;94251.88;;;1.91;65.50
36932;BME280;22847;42.654;23.370;2023-01-31T07:17:25;94440.66;;;2.89;65.41
36932;BME280;22847;42.654;23.370;2023-01-31T07:19:50;94424.69;;;3.09;64.88
36932;BME280;22847;42.654;23.370;2023-01-31T07:22:16;94390.28;;;2.98;64.76
36932;BME280;22847;42.654;23.370;2023-01-31T07:24:42;94304.38;;;2.62;63.97
36932;BME280;22847;42.654;23.370;2023-01-31T07:27:07;94420.81;;;3.28;64.03
36932;BME280;22847;42.654;23.370;2023-01-31T07:29:32;94404.31;;;3.30;63.77
36932;BME280;22847;42.654;23.370;2023-01-31T07:31:58;94465.28;;;3.42;64.21
36932;BME280;22847;42.654;23.370;2023-01-31T07:34:23;94406.28;;;3.27;64.06
36932;BME280;22847;42.654;23.370;2023-01-31T07:36:50;94434.84;;;3.60;63.43
36932;BME280;22847;42.654;23.370;2023-01-31T07:39:16;94420.50;;;3.56;63.59
36932;BME280;22847;42.654;23.370;2023-01-31T07:41:41;94430.66;;;3.70;63.49
36932;BME280;22847;42.654;23.370;2023-01-31T07:44:07;94417.47;;;3.51;64.33
36932;BME280;22847;42.654;23.370;2023-01-31T07:46:36;94416.03;;;3.71;63.83
36932;BME280;22847;42.654;23.370;2023-01-31T07:49:02;94405.34;;;3.64;63.81
36932;BME280;22847;42.654;23.370;2023-01-31T07:51:27;94419.25;;;3.62;64.01
36932;BME280;22847;42.654;23.370;2023-01-31T07:53:53;94419.09;;;3.76;63.86
36932;BME280;22847;42.654;23.370;2023-01-31T07:56:20;94387.72;;;3.58;63.60
36932;BME280;22847;42.654;23.370;2023-01-31T07:58:47;94429.63;;;3.96;64.00
36932;BME280;22847;42.654;23.370;2023-01-31T08:01:14;94185.66;;;2.43;64.07
36932;BME280;22847;42.654;23.370;2023-01-31T08:03:59;94435.44;;;3.64;64.37
36932;BME280;22847;42.654;23.370;2023-01-31T08:06:26;94444.47;;;3.82;64.24
36932;BME280;22847;42.654;23.370;2023-01-31T08:08:53;94104.69;;;1.89;64.35
36932;BME280;22847;42.654;23.370;2023-01-31T08:11:18;94377.41;;;3.58;64.44
36932;BME280;22847;42.654;23.370;2023-01-31T08:13:44;94411.84;;;3.57;65.74
36932;BME280;22847;42.654;23.370;2023-01-31T08:16:10;94167.69;;;2.31;65.04
36932;BME280;22847;42.654;23.370;2023-01-31T08:18:37;94415.75;;;3.63;65.16
36932;BME280;22847;42.654;23.370;2023-01-31T08:21:04;94408.53;;;3.91;64.65
36932;BME280;22847;42.654;23.370;2023-01-31T08:23:29;94134.53;;;2.15;64.99
36932;BME280;22847;42.654;23.370;2023-01-31T08:26:00;94370.84;;;3.78;64.73
36932;BME280;22847;42.654;23.370;2023-01-31T08:28:25;94129.53;;;2.72;63.20
36932;BME280;22847;42.654;23.370;2023-01-31T08:30:51;94258.81;;;3.47;63.07
36932;BME280;22847;42.654;23.370;2023-01-31T08:33:16;94400.38;;;4.66;62.90
36932;BME280;22847;42.654;23.370;2023-01-31T08:35:41;94401.66;;;4.60;62.30
36932;BME280;22847;42.654;23.370;2023-01-31T08:38:07;94406.81;;;4.60;62.83
36932;BME280;22847;42.654;23.370;2023-01-31T08:40:32;94142.94;;;2.88;62.64
36932;BME280;22847;42.654;23.370;2023-01-31T08:42:58;94366.94;;;4.07;62.50
36932;BME280;22847;42.654;23.370;2023-01-31T08:45:28;94355.94;;;4.16;62.34
36932;BME280;22847;42.654;23.370;2023-01-31T08:47:55;94404.19;;;4.27;62.47
36932;BME280;22847;42.654;23.370;2023-01-31T08:50:27;94350.56;;;3.84;62.80
36932;BME280;22847;42.654;23.370;2023-01-31T08:52:54;94249.44;;;3.46;62.27
36932;BME280;22847;42.654;23.370;2023-01-31T08:55:20;94158.19;;;3.02;62.15
36932;BME280;22847;42.654;23.370;2023-01-31T08:57:46;94423.72;;;4.53;62.08
36932;BME280;22847;42.654;23.370;2023-01-31T09:00:11;94411.81;;;4.39;62.56
36932;BME280;22847;42.654;23.370;2023-01-31T09:02:37;94405.09;;;4.26;63.27
36932;BME280;22847;42.654;23.370;2023-01-31T09:05:03;94130.16;;;3.10;62.62
36932;BME280;22847;42.654;23.370;2023-01-31T09:07:28;94249.56;;;4.01;61.21
36932;BME280;22847;42.654;23.370;2023-01-31T09:09:53;94393.47;;;5.22;60.14
36932;BME280;22847;42.654;23.370;2023-01-31T09:12:19;94408.69;;;5.47;59.29
36932;BME280;22847;42.654;23.370;2023-01-31T09:14:44;94178.84;;;4.37;58.60
36932;BME280;22847;42.654;23.370;2023-01-31T09:17:10;94424.13;;;5.92;58.83
36932;BME280;22847;42.654;23.370;2023-01-31T09:19:36;94205.41;;;4.71;56.86
36932;BME280;22847;42.654;23.370;2023-01-31T09:22:02;94404.50;;;5.78;57.10
36932;BME280;22847;42.654;23.370;2023-01-31T09:24:27;94403.44;;;5.80;57.28
36932;BME280;22847;42.654;23.370;2023-01-31T09:26:53;94400.34;;;5.44;57.70
36932;BME280;22847;42.654;23.370;2023-01-31T09:29:19;94421.63;;;5.14;57.83
36932;BME280;22847;42.654;23.370;2023-01-31T09:31:45;94427.25;;;5.52;58.09
36932;BME280;22847;42.654;23.370;2023-01-31T09:34:10;94386.66;;;5.64;57.19
36932;BME280;22847;42.654;23.370;2023-01-31T09:36:35;94094.00;;;3.79;57.66
36932;BME280;22847;42.654;23.370;2023-01-31T09:39:01;94345.72;;;5.69;57.40
36932;BME280;22847;42.654;23.370;2023-01-31T09:41:42;94377.44;;;6.14;56.50
36932;BME280;22847;42.654;23.370;2023-01-31T09:44:36;94364.56;;;6.44;56.35
36932;BME280;22847;42.654;23.370;2023-01-31T09:47:11;94367.16;;;6.65;55.47
36932;BME280;22847;42.654;23.370;2023-01-31T09:50:05;94374.97;;;7.05;54.95
36932;BME280;22847;42.654;23.370;2023-01-31T09:52:31;94325.69;;;6.95;55.49
36932;BME280;22847;42.654;23.370;2023-01-31T09:54:58;94290.66;;;6.61;54.34
36932;BME280;22847;42.654;23.370;2023-01-31T10:00:02;94382.19;;;7.41;55.28
36932;BME280;22847;42.654;23.370;2023-01-31T10:05:32;94253.44;;;6.71;52.47
36932;BME280;22847;42.654;23.370;2023-01-31T10:10:47;94349.63;;;7.96;51.23
36932;BME280;22847;42.654;23.370;2023-01-31T10:13:29;94290.59;;;7.41;50.63
36932;BME280;22847;42.654;23.370;2023-01-31T10:16:27;94363.06;;;7.33;52.87
36932;BME280;22847;42.654;23.370;2023-01-31T10:22:09;94376.69;;;6.64;54.46
36932;BME280;22847;42.654;23.370;2023-01-31T10:24:42;94173.75;;;5.84;54.50
36932;BME280;22847;42.654;23.370;2023-01-31T10:29:59;94404.22;;;6.86;54.11
36932;BME280;22847;42.654;23.370;2023-01-31T10:32:35;94360.19;;;6.96;53.67
36932;BME280;22847;42.654;23.370;2023-01-31T10:37:58;94300.78;;;6.43;53.26
36932;BME280;22847;42.654;23.370;2023-01-31T10:40:36;94383.44;;;6.56;53.62
36932;BME280;22847;42.654;23.370;2023-01-31T10:45:51;94358.63;;;6.33;55.25
36932;BME280;22847;42.654;23.370;2023-01-31T10:48:21;94086.50;;;4.73;55.39
36932;BME280;22847;42.654;23.370;2023-01-31T10:51:28;94361.78;;;6.36;55.68
36932;BME280;22847;42.654;23.370;2023-01-31T10:56:46;94359.56;;;6.32;55.32
36932;BME280;22847;42.654;23.370;2023-01-31T10:59:17;94411.88;;;6.25;55.14
36932;BME280;22847;42.654;23.370;2023-01-31T11:01:45;94339.44;;;5.82;56.06
36932;BME280;22847;42.654;23.370;2023-01-31T11:04:40;94361.00;;;6.04;56.37
36932;BME280;22847;42.654;23.370;2023-01-31T11:07:07;94210.47;;;5.05;56.38
36932;BME280;22847;42.654;23.370;2023-01-31T11:09:39;94349.22;;;5.79;56.24
36932;BME280;22847;42.654;23.370;2023-01-31T11:12:06;94310.53;;;5.57;56.59
36932;BME280;22847;42.654;23.370;2023-01-31T11:14:32;94372.59;;;5.46;57.59
36932;BME280;22847;42.654;23.370;2023-01-31T11:50:54;94344.13;;;4.91;62.98
36932;BME280;22847;42.654;23.370;2023-01-31T11:56:13;94353.34;;;5.38;61.88
36932;BME280;22847;42.654;23.370;2023-01-31T11:58:40;94321.09;;;5.11;61.65
36932;BME280;22847;42.654;23.370;2023-01-31T12:01:14;94156.34;;;3.84;62.91
36932;BME280;22847;42.654;23.370;2023-01-31T12:06:30;94302.72;;;4.60;65.39
36932;BME280;22847;42.654;23.370;2023-01-31T12:08:58;94295.81;;;4.49;65.53
36932;BME280;22847;42.654;23.370;2023-01-31T12:11:32;94145.47;;;3.69;65.32
36932;BME280;22847;42.654;23.370;2023-01-31T12:14:14;94327.44;;;4.95;65.09
36932;BME280;22847;42.654;23.370;2023-01-31T12:16:41;94357.50;;;5.19;63.28
36932;BME280;22847;42.654;23.370;2023-01-31T12:35:58;94133.22;;;3.27;64.10
36932;BME280;22847;42.654;23.370;2023-01-31T12:41:35;94368.56;;;4.65;63.28
36932;BME280;22847;42.654;23.370;2023-01-31T12:49:56;94215.06;;;3.69;64.12
36932;BME280;22847;42.654;23.370;2023-01-31T13:03:05;94401.78;;;5.14;63.24
36932;BME280;22847;42.654;23.370;2023-01-31T13:05:50;94366.69;;;4.78;64.81
36932;BME280;22847;42.654;23.370;2023-01-31T13:08:22;94144.84;;;3.66;66.31
36932;BME280;22847;42.654;23.370;2023-01-31T13:10:51;94407.31;;;4.87;65.50
36932;BME280;22847;42.654;23.370;2023-01-31T13:13:29;94379.44;;;4.46;67.06
36932;BME280;22847;42.654;23.370;2023-01-31T13:16:04;94316.06;;;4.09;65.94
36932;BME280;22847;42.654;23.370;2023-01-31T13:18:32;94377.97;;;4.66;64.17
36932;BME280;22847;42.654;23.370;2023-01-31T13:21:05;94427.91;;;4.43;64.79
36932;BME280;22847;42.654;23.370;2023-01-31T13:26:19;94384.53;;;4.59;64.80
36932;BME280;22847;42.654;23.370;2023-01-31T13:29:38;94393.78;;;4.62;63.87
36932;BME280;22847;42.654;23.370;2023-01-31T13:32:00;94204.63;;;3.71;63.18
36932;BME280;22847;42.654;23.370;2023-01-31T13:37:37;94355.28;;;4.47;63.50
36932;BME280;22847;42.654;23.370;2023-01-31T13:40:17;94388.28;;;4.77;63.98
36932;BME280;22847;42.654;23.370;2023-01-31T13:42:44;94387.34;;;4.78;63.00
36932;BME280;22847;42.654;23.370;2023-01-31T13:45:23;94205.84;;;3.43;64.10
36932;BME280;22847;42.654;23.370;2023-01-31T13:48:02;94427.13;;;4.54;64.01
36932;BME280;22847;42.654;23.370;2023-01-31T13:50:39;94421.84;;;4.66;64.25
36932;BME280;22847;42.654;23.370;2023-01-31T13:53:16;94174.09;;;3.42;63.69
36932;BME280;22847;42.654;23.370;2023-01-31T13:55:46;94388.84;;;4.36;64.67
36932;BME280;22847;42.654;23.370;2023-01-31T13:58:27;94390.50;;;4.60;63.97
36932;BME280;22847;42.654;23.370;2023-01-31T14:01:07;94400.72;;;4.83;63.38
36932;BME280;22847;42.654;23.370;2023-01-31T14:09:28;94364.44;;;4.40;62.86
36932;BME280;22847;42.654;23.370;2023-01-31T14:11:58;94300.69;;;4.08;62.58
36932;BME280;22847;42.654;23.370;2023-01-31T14:17:04;94400.13;;;4.69;62.69
36932;BME280;22847;42.654;23.370;2023-01-31T14:29:44;94386.81;;;4.29;61.99
36932;BME280;22847;42.654;23.370;2023-01-31T14:32:29;94385.25;;;4.72;61.04
36932;BME280;22847;42.654;23.370;2023-01-31T14:34:56;94391.66;;;4.44;61.67
36932;BME280;22847;42.654;23.370;2023-01-31T14:48:14;94390.28;;;4.85;60.53
36932;BME280;22847;42.654;23.370;2023-01-31T14:53:40;94442.66;;;4.98;60.75
36932;BME280;22847;42.654;23.370;2023-01-31T14:58:51;94418.09;;;4.70;60.45
36932;BME280;22847;42.654;23.370;2023-01-31T15:01:19;94452.72;;;4.79;60.91
36932;BME280;22847;42.654;23.370;2023-01-31T15:03:51;94447.44;;;4.69;60.94
36932;BME280;22847;42.654;23.370;2023-01-31T15:06:24;94459.78;;;4.31;62.44
36932;BME280;22847;42.654;23.370;2023-01-31T15:11:50;94340.59;;;3.56;62.64
36932;BME280;22847;42.654;23.370;2023-01-31T15:14:29;94253.03;;;3.08;62.86
36932;BME280;22847;42.654;23.370;2023-01-31T15:17:00;94477.78;;;4.43;63.56
36932;BME280;22847;42.654;23.370;2023-01-31T15:19:30;94469.19;;;4.43;63.03
36932;BME280;22847;42.654;23.370;2023-01-31T15:22:03;94439.81;;;3.87;64.54
36932;BME280;22847;42.654;23.370;2023-01-31T15:24:44;94447.47;;;3.99;63.95
36932;BME280;22847;42.654;23.370;2023-01-31T15:27:17;94483.59;;;3.99;65.07
36932;BME280;22847;42.654;23.370;2023-01-31T15:38:24;94481.16;;;4.09;64.93
36932;BME280;22847;42.654;23.370;2023-01-31T15:41:20;94518.31;;;4.07;65.00
36932;BME280;22847;42.654;23.370;2023-01-31T15:43:48;94288.56;;;2.80;65.19
36932;BME280;22847;42.654;23.370;2023-01-31T15:46:29;94322.50;;;3.10;64.55
36932;BME280;22847;42.654;23.370;2023-01-31T15:48:55;94273.75;;;2.83;64.27
36932;BME280;22847;42.654;23.370;2023-01-31T15:51:22;94524.78;;;4.12;64.09
36932;BME280;22847;42.654;23.370;2023-01-31T15:53:48;94504.56;;;4.19;64.09
36932;BME280;22847;42.654;23.370;2023-01-31T15:56:21;94497.50;;;4.21;63.67
36932;BME280;22847;42.654;23.370;2023-01-31T15:58:50;94448.34;;;3.64;64.27
36932;BME280;22847;42.654;23.370;2023-01-31T16:01:17;94508.88;;;3.94;64.44
36932;BME280;22847;42.654;23.370;2023-01-31T16:03:49;94511.72;;;4.02;64.08
36932;BME280;22847;42.654;23.370;2023-01-31T16:06:23;94285.22;;;2.79;63.35
36932;BME280;22847;42.654;23.370;2023-01-31T16:08:54;94500.78;;;3.75;64.36
36932;BME280;22847;42.654;23.370;2023-01-31T16:11:20;94517.31;;;3.73;64.05
36932;BME280;22847;42.654;23.370;2023-01-31T16:13:46;94527.84;;;3.93;64.44
36932;BME280;22847;42.654;23.370;2023-01-31T16:16:12;94526.50;;;4.00;64.01
36932;BME280;22847;42.654;23.370;2023-01-31T16:18:42;94520.53;;;4.00;63.71